createdAt,value
2019-04-29T00:00:54.128Z,88.02
2019-04-29T00:01:54.116Z,87.92
2019-04-29T00:02:54.152Z,87.85
2019-04-29T00:03:54.096Z,87.74
2019-04-29T00:04:54.083Z,87.65
2019-04-29T00:05:54.080Z,87.85
2019-04-29T00:06:54.064Z,87.74
2019-04-29T00:07:54.091Z,86.92
2019-04-29T00:08:54.037Z,86.82
2019-04-29T00:09:54.026Z,87.48
2019-04-29T00:10:54.018Z,87.34
2019-04-29T00:11:54.046Z,86.51
2019-04-29T00:12:53.993Z,85.83
2019-04-29T00:13:53.983Z,86.03
2019-04-29T00:14:53.970Z,85.72
2019-04-29T00:15:53.958Z,85.93
2019-04-29T00:16:53.952Z,86.24
2019-04-29T00:17:53.980Z,86.34
2019-04-29T00:18:53.974Z,86.07
2019-04-29T00:19:53.917Z,85.97
2019-04-29T00:20:53.908Z,86.28
2019-04-29T00:21:53.933Z,86.18
2019-04-29T00:22:53.887Z,86.90
2019-04-29T00:24:03.712Z,87.31
2019-04-29T00:24:54.903Z,87.73
2019-04-29T00:25:53.850Z,88.14
2019-04-29T00:26:53.880Z,87.21
2019-04-29T00:27:53.828Z,86.90
2019-04-29T00:28:53.819Z,86.79
2019-04-29T00:29:53.805Z,86.90
2019-04-29T00:30:53.797Z,86.52
2019-04-29T00:31:53.827Z,86.79
2019-04-29T00:32:53.773Z,87.10
2019-04-29T00:33:53.802Z,87.89
2019-04-29T00:34:53.756Z,87.10
2019-04-29T00:35:53.742Z,87.58
2019-04-29T00:36:53.730Z,87.89
2019-04-29T00:37:53.761Z,87.58
2019-04-29T00:38:53.719Z,87.48
2019-04-29T00:39:53.697Z,87.54
2019-04-29T00:40:53.691Z,87.48
2019-04-29T00:41:53.722Z,87.85
2019-04-29T00:42:53.669Z,87.13
2019-04-29T00:43:53.653Z,87.54
2019-04-29T00:44:53.689Z,87.34
2019-04-29T00:45:53.676Z,87.85
2019-04-29T00:46:53.621Z,88.26
2019-04-29T00:47:53.607Z,88.78
2019-04-29T00:48:53.600Z,88.06
2019-04-29T00:49:53.584Z,88.78
2019-04-29T00:50:53.573Z,88.95
2019-04-29T00:51:53.603Z,90.22
2019-04-29T00:52:53.598Z,90.08
2019-04-29T00:53:53.541Z,88.89
2019-04-29T00:54:53.535Z,89.36
2019-04-29T00:55:53.518Z,89.56
2019-04-29T00:56:53.509Z,90.08
2019-04-29T00:57:53.496Z,89.81
2019-04-29T00:58:53.531Z,89.56
2019-04-29T00:59:53.475Z,90.70
2019-04-29T01:00:53.467Z,90.84
2019-04-29T01:01:53.451Z,90.64
2019-04-29T01:02:53.443Z,90.49
2019-04-29T01:03:53.472Z,89.98
2019-04-29T01:04:53.423Z,89.67
2019-04-29T01:05:53.408Z,90.12
2019-04-29T01:06:53.412Z,89.71
2019-04-29T01:07:53.387Z,90.22
2019-04-29T01:08:53.416Z,90.06
2019-04-29T01:09:53.362Z,90.16
2019-04-29T01:10:53.358Z,90.47
2019-04-29T01:11:53.341Z,90.89
2019-04-29T01:12:53.372Z,90.68
2019-04-29T01:13:53.368Z,90.41
2019-04-29T01:14:53.309Z,90.62
2019-04-29T01:15:53.296Z,91.34
2019-04-29T01:16:53.289Z,90.83
2019-04-29T01:17:53.274Z,90.99
2019-04-29T01:18:53.264Z,90.99
2019-04-29T01:19:53.296Z,90.58
2019-04-29T01:20:53.242Z,91.61
2019-04-29T01:21:53.231Z,91.50
2019-04-29T01:22:53.222Z,91.30
2019-04-29T01:23:53.251Z,90.74
2019-04-29T01:24:53.198Z,90.43
2019-04-29T01:25:53.187Z,90.64
2019-04-29T01:26:53.176Z,90.95
2019-04-29T01:27:53.166Z,89.71
2019-04-29T01:28:53.160Z,90.95
2019-04-29T01:29:53.187Z,90.74
2019-04-29T01:30:53.132Z,90.74
2019-04-29T01:31:53.124Z,90.95
2019-04-29T01:32:53.120Z,90.33
2019-04-29T01:33:53.165Z,90.70
2019-04-29T01:34:53.138Z,90.64
2019-04-29T01:35:53.077Z,90.12
2019-04-29T01:36:53.083Z,90.59
2019-04-29T01:37:53.095Z,89.98
2019-04-29T01:38:53.054Z,89.61
2019-04-29T01:39:53.032Z,90.59
2019-04-29T01:40:53.061Z,90.08
2019-04-29T01:41:53.050Z,89.81
2019-04-29T01:42:52.999Z,90.28
2019-04-29T01:43:53.027Z,89.56
2019-04-29T01:44:52.980Z,89.46
2019-04-29T01:45:52.977Z,89.98
2019-04-29T01:46:52.995Z,90.08
2019-04-29T01:47:52.943Z,90.08
2019-04-29T01:48:52.933Z,90.33
2019-04-29T01:49:52.922Z,89.67
2019-04-29T01:50:52.915Z,90.22
2019-04-29T01:51:52.915Z,90.64
2019-04-29T01:52:52.932Z,90.53
2019-04-29T01:53:52.877Z,90.80
2019-04-29T01:54:52.908Z,90.08
2019-04-29T01:55:52.855Z,90.12
2019-04-29T01:56:52.849Z,90.02
2019-04-29T01:57:52.834Z,90.43
2019-04-29T01:58:52.823Z,89.81
2019-04-29T01:59:52.852Z,89.92
2019-04-29T02:00:52.804Z,90.22
2019-04-29T02:01:52.801Z,90.12
2019-04-29T02:02:52.780Z,90.33
2019-04-29T02:03:52.768Z,90.64
2019-04-29T02:04:52.761Z,90.49
2019-04-29T02:05:52.811Z,90.39
2019-04-29T02:06:52.780Z,89.92
2019-04-29T02:07:52.723Z,89.81
2019-04-29T02:08:52.761Z,89.98
2019-04-29T02:09:52.712Z,89.05
2019-04-29T02:10:52.703Z,88.53
2019-04-29T02:11:52.724Z,88.53
2019-04-29T02:12:52.671Z,88.95
2019-04-29T02:13:52.658Z,88.64
2019-04-29T02:14:52.649Z,88.64
2019-04-29T02:15:52.639Z,89.05
2019-04-29T02:16:52.667Z,88.95
2019-04-29T02:17:52.614Z,89.05
2019-04-29T02:18:52.603Z,88.84
2019-04-29T02:19:52.594Z,88.74
2019-04-29T02:20:52.586Z,87.71
2019-04-29T02:21:52.576Z,88.22
2019-04-29T02:22:52.600Z,88.57
2019-04-29T02:23:52.549Z,88.57
2019-04-29T02:24:52.536Z,88.68
2019-04-29T02:25:52.527Z,89.29
2019-04-29T02:26:52.563Z,88.89
2019-04-29T02:27:52.515Z,88.89
2019-04-29T02:28:52.494Z,89.19
2019-04-29T02:29:52.490Z,89.36
2019-04-29T02:30:52.479Z,89.36
2019-04-29T02:31:52.460Z,89.81
2019-04-29T02:32:52.496Z,89.92
2019-04-29T02:33:52.438Z,89.19
2019-04-29T02:34:52.428Z,89.81
2019-04-29T02:35:52.459Z,89.87
2019-04-29T02:36:52.407Z,89.61
2019-04-29T02:37:52.398Z,89.56
2019-04-29T02:38:52.389Z,89.50
2019-04-29T02:39:52.413Z,89.29
2019-04-29T02:40:52.363Z,89.71
2019-04-29T02:41:52.355Z,89.81
2019-04-29T02:42:52.337Z,90.37
2019-04-29T02:43:52.371Z,90.06
2019-04-29T02:44:52.318Z,90.68
2019-04-29T02:45:52.304Z,90.68
2019-04-29T02:46:52.301Z,91.30
2019-04-29T02:47:52.335Z,90.78
2019-04-29T02:48:52.346Z,90.68
2019-04-29T02:49:52.259Z,90.68
2019-04-29T02:50:52.250Z,91.30
2019-04-29T02:51:52.238Z,90.78
2019-04-29T02:52:52.291Z,90.89
2019-04-29T02:53:52.217Z,91.40
2019-04-29T02:54:52.252Z,91.05
2019-04-29T02:55:52.194Z,90.95
2019-04-29T02:56:52.187Z,90.95
2019-04-29T02:57:52.172Z,90.12
2019-04-29T02:58:52.161Z,89.98
2019-04-29T02:59:52.150Z,90.12
2019-04-29T03:00:52.186Z,89.75
2019-04-29T03:01:52.505Z,89.86
2019-04-29T03:02:52.119Z,90.06
2019-04-29T03:03:52.109Z,89.92
2019-04-29T03:04:52.108Z,90.74
2019-04-29T03:05:52.085Z,90.26
2019-04-29T03:06:52.120Z,90.06
2019-04-29T03:07:52.061Z,90.16
2019-04-29T03:08:52.053Z,91.20
2019-04-29T03:09:52.048Z,90.68
2019-04-29T03:10:52.041Z,90.62
2019-04-29T03:11:52.018Z,90.83
2019-04-29T03:12:52.055Z,90.83
2019-04-29T03:13:51.996Z,91.20
2019-04-29T03:14:51.985Z,90.83
2019-04-29T03:15:51.979Z,91.75
2019-04-29T03:16:51.964Z,91.44
2019-04-29T03:17:51.950Z,91.09
2019-04-29T03:18:51.980Z,91.50
2019-04-29T03:19:51.932Z,90.93
2019-04-29T03:20:51.959Z,90.93
2019-04-29T03:21:51.912Z,91.24
2019-04-29T03:22:51.940Z,90.78
2019-04-29T03:23:51.886Z,90.68
2019-04-29T03:24:51.914Z,90.99
2019-04-29T03:25:51.860Z,90.06
2019-04-29T03:26:51.857Z,89.54
2019-04-29T03:27:51.865Z,89.75
2019-04-29T03:28:51.830Z,89.65
2019-04-29T03:29:51.819Z,90.16
2019-04-29T03:30:51.846Z,89.95
2019-04-29T03:31:51.840Z,90.41
2019-04-29T03:32:51.785Z,90.00
2019-04-29T03:33:51.773Z,90.37
2019-04-29T03:34:51.765Z,90.37
2019-04-29T03:35:51.768Z,90.47
2019-04-29T03:36:51.781Z,89.65
2019-04-29T03:37:51.738Z,90.47
2019-04-29T03:38:51.729Z,90.37
2019-04-29T03:39:51.751Z,89.75
2019-04-29T03:40:51.695Z,89.54
2019-04-29T03:41:51.685Z,89.86
2019-04-29T03:42:51.717Z,90.47
2019-04-29T03:43:51.663Z,89.65
2019-04-29T03:44:51.657Z,89.54
2019-04-29T03:45:51.640Z,90.16
2019-04-29T03:46:51.633Z,89.75
2019-04-29T03:47:51.659Z,89.86
2019-04-29T03:48:51.655Z,90.47
2019-04-29T03:49:51.595Z,89.95
2019-04-29T03:50:51.600Z,90.37
2019-04-29T03:51:51.574Z,90.58
2019-04-29T03:52:51.565Z,90.20
2019-04-29T03:53:51.552Z,90.31
2019-04-29T03:54:51.579Z,90.68
2019-04-29T03:55:51.529Z,90.06
2019-04-29T03:56:51.548Z,89.75
2019-04-29T03:57:51.506Z,89.86
2019-04-29T03:58:51.500Z,90.31
2019-04-29T03:59:51.486Z,90.47
2019-04-29T04:00:51.514Z,89.86
2019-04-29T04:01:51.463Z,89.75
2019-04-29T04:02:51.455Z,89.54
2019-04-29T04:03:51.439Z,89.34
2019-04-29T04:04:51.468Z,89.86
2019-04-29T04:05:51.461Z,89.75
2019-04-29T04:06:51.446Z,89.79
2019-04-29T04:07:51.398Z,89.69
2019-04-29T04:09:05.524Z,89.69
2019-04-29T04:09:52.375Z,89.89
2019-04-29T04:10:51.362Z,90.83
2019-04-29T04:11:51.394Z,91.13
2019-04-29T04:12:51.350Z,90.72
2019-04-29T04:13:51.364Z,89.89
2019-04-29T04:14:51.318Z,90.68
2019-04-29T04:15:51.306Z,90.41
2019-04-29T04:16:51.338Z,90.47
2019-04-29T04:17:51.291Z,90.37
2019-04-29T04:18:51.275Z,89.54
2019-04-29T04:19:51.263Z,89.44
2019-04-29T04:20:51.297Z,90.16
2019-04-29T04:21:51.240Z,90.37
2019-04-29T04:22:51.231Z,90.20
2019-04-29T04:23:51.218Z,90.26
2019-04-29T04:24:51.207Z,89.75
2019-04-29T04:25:51.197Z,89.75
2019-04-29T04:26:51.229Z,89.34
2019-04-29T04:27:51.218Z,90.47
2019-04-29T04:28:51.206Z,89.54
2019-04-29T04:29:51.156Z,89.59
2019-04-29T04:30:51.148Z,89.89
2019-04-29T04:31:51.132Z,90.62
2019-04-29T04:32:51.160Z,90.78
2019-04-29T04:33:51.107Z,90.72
2019-04-29T04:34:51.207Z,90.26
2019-04-29T04:35:51.085Z,90.06
2019-04-29T04:36:51.075Z,90.06
2019-04-29T04:37:51.060Z,90.00
2019-04-29T04:38:51.051Z,89.44
2019-04-29T04:39:51.039Z,90.16
2019-04-29T04:40:51.071Z,89.79
2019-04-29T04:41:51.058Z,90.00
2019-04-29T04:42:51.032Z,90.16
2019-04-29T04:43:51.070Z,90.06
2019-04-29T04:44:50.988Z,89.89
2019-04-29T04:45:50.975Z,89.75
2019-04-29T04:46:50.964Z,89.86
2019-04-29T04:47:50.995Z,89.65
2019-04-29T04:48:50.983Z,89.28
2019-04-29T04:49:50.954Z,88.65
2019-04-29T04:50:50.930Z,89.42
2019-04-29T04:51:51.025Z,89.62
2019-04-29T04:52:50.944Z,90.04
2019-04-29T04:53:50.896Z,90.20
2019-04-29T04:54:50.895Z,89.89
2019-04-29T04:55:50.867Z,89.89
2019-04-29T04:56:50.895Z,89.59
2019-04-29T04:57:50.840Z,89.28
2019-04-29T04:58:50.868Z,90.31
2019-04-29T04:59:50.821Z,90.00
2019-04-29T05:00:50.805Z,89.79
2019-04-29T05:01:50.808Z,89.48
2019-04-29T05:02:50.876Z,89.34
2019-04-29T05:03:50.828Z,89.86
2019-04-29T05:04:50.814Z,89.07
2019-04-29T05:05:50.752Z,89.79
2019-04-29T05:06:50.767Z,90.47
2019-04-29T05:07:50.743Z,90.06
2019-04-29T05:08:50.723Z,89.54
2019-04-29T05:09:50.722Z,88.61
2019-04-29T05:10:51.507Z,88.92
2019-04-29T05:11:50.747Z,89.13
2019-04-29T05:12:50.679Z,88.82
2019-04-29T05:13:50.683Z,88.82
2019-04-29T05:14:50.653Z,89.13
2019-04-29T05:15:50.668Z,88.71
2019-04-29T05:16:50.639Z,87.58
2019-04-29T05:17:53.169Z,88.06
2019-04-29T05:18:50.612Z,87.89
2019-04-29T05:19:50.616Z,87.65
2019-04-29T05:20:50.631Z,87.79
2019-04-29T05:21:50.589Z,88.41
2019-04-29T05:22:50.566Z,88.51
2019-04-29T05:23:50.559Z,88.57
2019-04-29T05:24:50.552Z,88.41
2019-04-29T05:25:50.540Z,88.92
2019-04-29T05:26:50.563Z,89.29
2019-04-29T05:27:50.588Z,88.47
2019-04-29T05:28:50.499Z,88.98
2019-04-29T05:29:50.519Z,87.71
2019-04-29T05:30:50.486Z,87.81
2019-04-29T05:31:50.468Z,87.81
2019-04-29T05:32:50.514Z,87.71
2019-04-29T05:33:50.450Z,86.88
2019-04-29T05:34:50.444Z,86.78
2019-04-29T05:35:50.454Z,85.85
2019-04-29T05:36:50.414Z,86.36
2019-04-29T05:37:50.461Z,86.05
2019-04-29T05:38:50.412Z,87.08
2019-04-29T05:39:50.404Z,87.08
2019-04-29T05:40:50.374Z,87.40
2019-04-29T05:41:50.377Z,86.98
2019-04-29T05:42:52.641Z,87.26
2019-04-29T05:43:50.349Z,87.29
2019-04-29T05:44:50.370Z,86.02
2019-04-29T05:45:50.326Z,85.30
2019-04-29T05:46:50.351Z,85.91
2019-04-29T05:47:52.500Z,85.60
2019-04-29T05:48:51.336Z,85.95
2019-04-29T05:49:50.323Z,86.16
2019-04-29T05:50:52.181Z,87.29
2019-04-29T05:51:50.317Z,86.68
2019-04-29T05:52:50.332Z,87.29
2019-04-29T05:53:54.898Z,87.29
2019-04-29T05:54:51.287Z,87.60
2019-04-29T05:55:52.515Z,86.05
2019-04-29T05:56:50.212Z,87.08
2019-04-29T05:57:50.231Z,86.36
2019-04-29T05:58:50.203Z,86.02
2019-04-29T05:59:50.163Z,86.36
2019-04-29T06:00:50.168Z,86.26
2019-04-29T06:01:50.139Z,86.47
2019-04-29T06:02:50.164Z,86.43
2019-04-29T06:03:50.178Z,86.74
2019-04-29T06:04:52.342Z,85.97
2019-04-29T06:05:50.125Z,86.12
2019-04-29T06:06:50.127Z,86.12
2019-04-29T06:07:51.733Z,86.08
2019-04-29T06:08:50.093Z,85.97
2019-04-29T06:09:50.150Z,85.36
2019-04-29T06:10:50.044Z,85.36
2019-04-29T06:11:50.024Z,85.46
2019-04-29T06:12:50.099Z,84.94
2019-04-29T06:13:50.009Z,84.53
2019-04-29T06:14:49.999Z,84.64
2019-04-29T06:15:50.023Z,85.36
2019-04-29T06:16:52.710Z,85.52
2019-04-29T06:17:50.048Z,84.80
2019-04-29T06:18:50.018Z,85.17
2019-04-29T06:19:49.954Z,84.77
2019-04-29T06:20:49.946Z,84.70
2019-04-29T06:21:49.928Z,85.01
2019-04-29T06:22:49.906Z,84.59
2019-04-29T06:23:49.912Z,84.59
2019-04-29T06:24:49.951Z,84.80
2019-04-29T06:25:49.923Z,84.91
2019-04-29T06:26:49.872Z,84.49
2019-04-29T06:27:49.871Z,85.63
2019-04-29T06:28:49.874Z,85.52
2019-04-29T06:29:49.890Z,85.49
2019-04-29T06:30:51.606Z,84.31
2019-04-29T06:31:49.884Z,84.62
2019-04-29T06:32:49.796Z,83.49
2019-04-29T06:33:49.787Z,83.14
2019-04-29T06:34:49.803Z,83.55
2019-04-29T06:35:49.766Z,82.73
2019-04-29T06:36:49.976Z,83.45
2019-04-29T06:37:49.798Z,82.63
2019-04-29T06:38:49.744Z,82.42
2019-04-29T06:39:49.943Z,82.53
2019-04-29T06:40:49.731Z,82.53
2019-04-29T06:41:49.774Z,82.42
2019-04-29T06:42:53.454Z,82.53
2019-04-29T06:43:54.169Z,82.46
2019-04-29T06:44:50.800Z,82.56
2019-04-29T06:45:49.681Z,82.87
2019-04-29T06:46:50.221Z,83.22
2019-04-29T06:47:49.697Z,83.39
2019-04-29T06:48:49.693Z,83.53
2019-04-29T06:49:49.626Z,83.80
2019-04-29T06:50:49.906Z,84.00
2019-04-29T06:51:49.681Z,83.07
2019-04-29T06:52:49.605Z,83.53
2019-04-29T06:53:49.630Z,83.22
2019-04-29T06:54:49.606Z,83.94
2019-04-29T06:55:49.614Z,84.56
2019-04-29T06:56:49.542Z,84.80
2019-04-29T06:57:49.516Z,84.80
2019-04-29T06:58:49.549Z,85.52
2019-04-29T06:59:49.596Z,85.01
2019-04-29T07:00:51.087Z,85.42
2019-04-29T07:01:49.485Z,85.22
2019-04-29T07:02:49.986Z,85.94
2019-04-29T07:03:49.497Z,85.59
2019-04-29T07:04:49.468Z,84.35
2019-04-29T07:05:51.549Z,84.77
2019-04-29T07:06:57.284Z,84.77
2019-04-29T07:07:50.420Z,84.21
2019-04-29T07:08:49.405Z,84.21
2019-04-29T07:09:49.414Z,83.39
2019-04-29T07:10:49.434Z,83.14
2019-04-29T07:11:49.363Z,85.41
2019-04-29T07:12:49.355Z,84.75
2019-04-29T07:13:49.468Z,82.48
2019-04-29T07:14:49.332Z,81.97
2019-04-29T07:15:49.329Z,82.07
2019-04-29T07:16:49.364Z,82.18
2019-04-29T07:17:49.312Z,82.63
2019-04-29T07:18:53.416Z,82.53
2019-04-29T07:19:49.276Z,82.42
2019-04-29T07:20:49.288Z,83.20
2019-04-29T07:21:53.242Z,82.39
2019-04-29T07:22:50.292Z,82.55
2019-04-29T07:23:49.287Z,82.34
2019-04-29T07:24:49.223Z,82.76
2019-04-29T07:25:49.213Z,82.04
2019-04-29T07:26:49.208Z,82.34
2019-04-29T07:27:49.573Z,82.34
2019-04-29T07:28:53.174Z,82.45
2019-04-29T07:29:49.209Z,81.73
2019-04-29T07:31:01.174Z,82.10
2019-04-29T07:31:50.150Z,81.79
2019-04-29T07:32:49.137Z,82.00
2019-04-29T07:33:49.134Z,82.04
2019-04-29T07:34:49.121Z,82.20
2019-04-29T07:35:49.650Z,81.73
2019-04-29T07:36:49.226Z,81.73
2019-04-29T07:37:49.474Z,82.00
2019-04-29T07:38:51.666Z,81.07
2019-04-29T07:39:51.008Z,81.18
2019-04-29T07:40:50.041Z,81.14
2019-04-29T07:41:49.494Z,80.93
2019-04-29T07:42:49.521Z,80.32
2019-04-29T07:43:49.043Z,80.93
2019-04-29T07:44:52.812Z,80.42
2019-04-29T07:45:49.011Z,80.93
2019-04-29T07:46:57.075Z,80.18
2019-04-29T07:47:56.734Z,80.69
2019-04-29T07:49:00.688Z,80.14
2019-04-29T07:49:51.492Z,79.52
2019-04-29T07:50:49.036Z,78.91
2019-04-29T07:51:49.043Z,78.70
2019-04-29T07:52:49.969Z,79.11
2019-04-29T07:53:48.971Z,78.81
2019-04-29T07:54:54.936Z,79.63
2019-04-29T07:55:49.891Z,78.97
2019-04-29T07:56:48.878Z,77.74
2019-04-29T07:57:52.191Z,77.03
2019-04-29T07:58:48.845Z,77.61
2019-04-29T07:59:48.833Z,77.71
2019-04-29T08:00:49.961Z,77.20
2019-04-29T08:01:48.875Z,76.75
2019-04-29T08:02:48.895Z,76.85
2019-04-29T08:03:48.844Z,75.82
2019-04-29T08:04:48.917Z,76.24
2019-04-29T08:05:48.773Z,75.73
2019-04-29T08:06:48.840Z,76.34
2019-04-29T08:07:49.025Z,76.24
2019-04-29T08:08:55.053Z,76.44
2019-04-29T08:09:49.768Z,76.51
2019-04-29T08:10:56.190Z,75.59
2019-04-29T08:11:49.872Z,75.28
2019-04-29T08:12:48.694Z,74.84
2019-04-29T08:13:48.756Z,74.02
2019-04-29T08:14:48.714Z,74.22
2019-04-29T08:15:48.659Z,74.53
2019-04-29T08:16:48.680Z,74.11
2019-04-29T08:17:51.346Z,73.06
2019-04-29T08:18:49.611Z,73.78
2019-04-29T08:19:48.634Z,72.92
2019-04-29T08:20:48.647Z,73.36
2019-04-29T08:21:49.721Z,73.78
2019-04-29T08:22:48.627Z,73.78
2019-04-29T08:23:48.720Z,73.98
2019-04-29T08:24:50.425Z,72.96
2019-04-29T08:25:50.930Z,73.33
2019-04-29T08:26:48.596Z,72.11
2019-04-29T08:27:48.698Z,70.34
2019-04-29T08:28:48.521Z,70.23
2019-04-29T08:29:48.553Z,69.52
2019-04-29T08:30:48.527Z,70.54
2019-04-29T08:31:52.041Z,71.46
2019-04-29T08:32:50.728Z,71.87
2019-04-29T08:33:48.620Z,71.01
2019-04-29T08:34:48.450Z,69.18
2019-04-29T08:35:48.452Z,68.94
2019-04-29T08:36:48.500Z,69.07
2019-04-29T08:37:48.420Z,68.16
2019-04-29T08:38:48.409Z,69.07
2019-04-29T08:40:03.497Z,69.65
2019-04-29T08:40:50.502Z,69.04
2019-04-29T08:41:48.410Z,69.15
2019-04-29T08:42:48.495Z,69.24
2019-04-29T08:43:48.363Z,69.15
2019-04-29T08:44:48.359Z,69.65
2019-04-29T08:45:48.350Z,69.04
2019-04-29T08:46:51.741Z,68.74
2019-04-29T08:47:48.309Z,68.43
2019-04-29T08:48:48.339Z,68.02
2019-04-29T08:49:48.282Z,68.94
2019-04-29T08:50:48.268Z,68.74
2019-04-29T08:51:48.314Z,68.84
2019-04-29T08:52:48.377Z,68.84
2019-04-29T08:53:48.371Z,69.32
2019-04-29T08:54:50.870Z,68.70
2019-04-29T08:55:49.267Z,68.37
2019-04-29T08:57:02.327Z,68.37
2019-04-29T08:57:50.169Z,68.16
2019-04-29T08:58:50.994Z,68.77
2019-04-29T08:59:48.568Z,68.26
2019-04-29T09:00:57.674Z,67.41
2019-04-29T09:01:48.274Z,66.80
2019-04-29T09:02:49.376Z,65.89
2019-04-29T09:03:48.773Z,65.48
2019-04-29T09:04:53.727Z,65.81
2019-04-29T09:06:03.962Z,65.78
2019-04-29T09:06:49.307Z,66.50
2019-04-29T09:07:48.165Z,65.86
2019-04-29T09:08:56.210Z,66.03
2019-04-29T09:09:49.119Z,66.33
2019-04-29T09:10:48.150Z,65.49
2019-04-29T09:11:49.422Z,65.89
2019-04-29T09:12:48.689Z,65.05
2019-04-29T09:13:48.035Z,63.65
2019-04-29T09:14:48.105Z,62.71
2019-04-29T09:15:48.074Z,64.98
2019-04-29T09:16:48.209Z,63.45
2019-04-29T09:17:48.010Z,63.96
2019-04-29T09:18:48.099Z,63.96
2019-04-29T09:19:49.625Z,63.35
2019-04-29T09:20:47.951Z,63.24
2019-04-29T09:21:49.399Z,64.78
2019-04-29T09:22:47.925Z,63.62
2019-04-29T09:23:47.953Z,62.84
2019-04-29T09:24:49.429Z,62.43
2019-04-29T09:26:01.715Z,64.06
2019-04-29T09:26:48.932Z,62.63
2019-04-29T09:27:47.944Z,61.69
2019-04-29T09:28:49.709Z,59.55
2019-04-29T09:29:58.904Z,57.62
2019-04-29T09:30:48.928Z,58.13
2019-04-29T09:31:47.820Z,57.49
2019-04-29T09:32:47.845Z,57.49
2019-04-29T09:33:49.067Z,57.29
2019-04-29T09:34:49.043Z,56.77
2019-04-29T09:35:59.281Z,58.10
2019-04-29T09:36:49.803Z,57.39
2019-04-29T09:37:49.393Z,57.39
2019-04-29T09:38:50.255Z,58.00
2019-04-29T09:39:47.811Z,58.51
2019-04-29T09:40:48.269Z,58.00
2019-04-29T09:41:47.697Z,58.30
2019-04-29T09:42:50.175Z,59.01
2019-04-29T09:43:47.746Z,59.32
2019-04-29T09:44:47.681Z,58.58
2019-04-29T09:45:47.675Z,57.59
2019-04-29T09:46:47.642Z,57.97
2019-04-29T09:47:47.714Z,56.65
2019-04-29T09:48:47.657Z,57.87
2019-04-29T09:49:47.635Z,57.77
2019-04-29T09:50:47.591Z,57.77
2019-04-29T09:51:47.586Z,58.20
2019-04-29T09:52:48.568Z,58.17
2019-04-29T09:53:47.580Z,56.65
2019-04-29T09:54:47.587Z,56.47
2019-04-29T09:55:47.544Z,55.83
2019-04-29T09:56:48.361Z,55.22
2019-04-29T09:57:47.528Z,55.73
2019-04-29T09:58:47.761Z,56.34
2019-04-29T09:59:47.577Z,55.83
2019-04-29T10:00:47.525Z,54.69
2019-04-29T10:01:50.561Z,54.41
2019-04-29T10:02:48.704Z,54.31
2019-04-29T10:03:47.472Z,55.22
2019-04-29T10:04:56.339Z,55.22
2019-04-29T10:05:48.431Z,56.12
2019-04-29T10:06:47.417Z,56.21
2019-04-29T10:07:47.414Z,56.01
2019-04-29T10:08:47.450Z,55.30
2019-04-29T10:09:57.112Z,56.70
2019-04-29T10:10:48.627Z,56.26
2019-04-29T10:11:47.677Z,54.74
2019-04-29T10:12:47.338Z,55.96
2019-04-29T10:13:47.326Z,55.25
2019-04-29T10:14:47.369Z,54.64
2019-04-29T10:15:47.329Z,54.24
2019-04-29T10:16:49.872Z,53.42
2019-04-29T10:17:50.804Z,52.71
2019-04-29T10:18:48.268Z,53.60
2019-04-29T10:19:47.299Z,53.02
2019-04-29T10:20:47.322Z,52.91
2019-04-29T10:21:47.255Z,53.02
2019-04-29T10:22:50.203Z,52.71
2019-04-29T10:23:48.214Z,53.55
2019-04-29T10:24:47.224Z,53.72
2019-04-29T10:25:47.248Z,52.81
2019-04-29T10:26:47.352Z,53.09
2019-04-29T10:27:47.232Z,52.69
2019-04-29T10:28:47.154Z,51.57
2019-04-29T10:29:50.775Z,51.29
2019-04-29T10:30:48.166Z,51.77
2019-04-29T10:31:47.190Z,52.58
2019-04-29T10:32:47.223Z,53.47
2019-04-29T10:33:50.224Z,53.78
2019-04-29T10:34:48.214Z,52.84
2019-04-29T10:35:47.156Z,51.48
2019-04-29T10:36:47.064Z,48.44
2019-04-29T10:37:47.102Z,48.95
2019-04-29T10:38:47.167Z,47.05
2019-04-29T10:39:47.148Z,48.00
2019-04-29T10:40:47.093Z,48.54
2019-04-29T10:41:47.007Z,49.98
2019-04-29T10:42:47.046Z,50.38
2019-04-29T10:43:49.475Z,50.99
2019-04-29T10:44:48.028Z,50.31
2019-04-29T10:45:46.972Z,50.60
2019-04-29T10:46:46.997Z,51.21
2019-04-29T10:47:46.941Z,50.38
2019-04-29T10:48:46.946Z,50.59
2019-04-29T10:49:49.641Z,50.76
2019-04-29T10:50:51.597Z,49.95
2019-04-29T10:51:47.955Z,50.23
2019-04-29T10:52:46.901Z,50.46
2019-04-29T10:53:51.034Z,50.46
2019-04-29T10:54:51.247Z,50.43
2019-04-29T10:55:48.789Z,50.43
2019-04-29T10:56:47.241Z,51.55
2019-04-29T10:57:49.727Z,50.61
2019-04-29T10:58:46.822Z,48.90
2019-04-29T10:59:50.027Z,48.39
2019-04-29T11:00:46.815Z,48.69
2019-04-29T11:01:54.634Z,46.56
2019-04-29T11:02:49.401Z,46.97
2019-04-29T11:03:46.771Z,47.90
2019-04-29T11:04:46.760Z,48.28
2019-04-29T11:06:00.106Z,48.49
2019-04-29T11:06:47.804Z,49.48
2019-04-29T11:07:46.816Z,49.27
2019-04-29T11:08:46.709Z,49.53
2019-04-29T11:09:50.829Z,49.73
2019-04-29T11:10:47.693Z,48.62
2019-04-29T11:11:46.714Z,49.22
2019-04-29T11:12:46.680Z,49.45
2019-04-29T11:13:50.333Z,50.06
2019-04-29T11:14:46.664Z,50.92
2019-04-29T11:15:49.431Z,52.33
2019-04-29T11:16:47.114Z,52.23
2019-04-29T11:17:46.694Z,52.54
2019-04-29T11:18:46.594Z,52.44
2019-04-29T11:19:46.647Z,50.92
2019-04-29T11:20:48.833Z,50.92
2019-04-29T11:21:47.623Z,50.41
2019-04-29T11:22:46.754Z,50.01
2019-04-29T11:23:50.558Z,49.73
2019-04-29T11:24:47.656Z,49.73
2019-04-29T11:25:50.988Z,48.91
2019-04-29T11:26:46.631Z,48.59
2019-04-29T11:27:46.649Z,48.49
2019-04-29T11:28:46.977Z,46.64
2019-04-29T11:29:46.543Z,46.84
2019-04-29T11:30:49.446Z,45.71
2019-04-29T11:31:49.104Z,45.49
2019-04-29T11:32:48.188Z,44.88
2019-04-29T11:33:46.475Z,45.89
2019-04-29T11:34:48.340Z,45.39
2019-04-29T11:35:47.444Z,44.27
2019-04-29T11:36:46.436Z,44.96
2019-04-29T11:37:50.070Z,45.49
2019-04-29T11:38:47.447Z,45.67
2019-04-29T11:39:50.216Z,44.96
2019-04-29T11:40:47.349Z,44.74
2019-04-29T11:41:47.287Z,43.63
2019-04-29T11:42:46.353Z,43.63
2019-04-29T11:43:50.463Z,43.43
2019-04-29T11:44:46.351Z,43.63
2019-04-29T11:45:46.444Z,43.91
2019-04-29T11:46:48.980Z,43.10
2019-04-29T11:47:46.432Z,43.44
2019-04-29T11:48:46.362Z,43.44
2019-04-29T11:49:47.917Z,43.44
2019-04-29T11:50:50.163Z,43.46
2019-04-29T11:52:07.919Z,43.44
2019-04-29T11:52:47.458Z,44.35
2019-04-29T11:53:46.287Z,44.54
2019-04-29T11:54:46.208Z,44.13
2019-04-29T11:55:46.516Z,43.80
2019-04-29T11:56:46.220Z,43.80
2019-04-29T11:57:46.155Z,44.42
2019-04-29T11:58:46.156Z,45.04
2019-04-29T11:59:46.220Z,44.74
2019-04-29T12:00:46.959Z,45.04
2019-04-29T12:01:50.925Z,45.04
2019-04-29T12:02:47.107Z,45.45
2019-04-29T12:03:46.103Z,46.33
2019-04-29T12:04:46.102Z,43.91
2019-04-29T12:05:46.336Z,45.37
2019-04-29T12:06:46.067Z,45.04
2019-04-29T12:07:46.055Z,44.82
2019-04-29T12:08:48.126Z,43.59
2019-04-29T12:09:47.024Z,43.71
2019-04-29T12:10:51.805Z,43.30
2019-04-29T12:11:47.002Z,43.80
2019-04-29T12:12:47.701Z,44.01
2019-04-29T12:13:45.998Z,43.30
2019-04-29T12:14:45.993Z,43.51
2019-04-29T12:15:49.231Z,44.01
2019-04-29T12:16:46.001Z,43.60
2019-04-29T12:17:45.963Z,43.51
2019-04-29T12:18:45.934Z,43.40
2019-04-29T12:19:45.964Z,44.92
2019-04-29T12:20:45.910Z,43.00
2019-04-29T12:21:45.906Z,42.92
2019-04-29T12:22:48.709Z,43.71
2019-04-29T12:23:47.669Z,42.58
2019-04-29T12:24:46.860Z,40.86
2019-04-29T12:25:45.840Z,41.85
2019-04-29T12:26:45.898Z,41.77
2019-04-29T12:27:45.847Z,42.58
2019-04-29T12:28:45.877Z,43.69
2019-04-29T12:29:48.791Z,43.59
2019-04-29T12:30:46.789Z,43.30
2019-04-29T12:31:49.264Z,43.30
2019-04-29T12:32:46.881Z,43.80
2019-04-29T12:33:45.758Z,44.09
2019-04-29T12:34:45.754Z,43.24
2019-04-29T12:35:51.893Z,42.44
2019-04-29T12:36:55.971Z,42.94
2019-04-29T12:37:46.757Z,43.04
2019-04-29T12:38:49.663Z,42.44
2019-04-29T12:39:46.716Z,43.69
2019-04-29T12:40:50.216Z,43.20
2019-04-29T12:41:49.143Z,43.30
2019-04-29T12:42:45.838Z,43.40
2019-04-29T12:43:48.683Z,43.48
2019-04-29T12:44:46.832Z,43.37
2019-04-29T12:45:45.743Z,42.84
2019-04-29T12:46:45.612Z,42.52
2019-04-29T12:47:45.637Z,41.00
2019-04-29T12:48:45.582Z,40.91
2019-04-29T12:49:46.361Z,40.89
2019-04-29T12:50:45.611Z,41.73
2019-04-29T12:51:45.562Z,42.15
2019-04-29T12:52:45.583Z,41.35